createdAt,value
2023-03-23T15:58:47.464Z,18.58
2023-03-23T16:01:20.121Z,18.84
2023-03-23T16:04:09.071Z,18.38
2023-03-23T16:06:37.542Z,18.34
2023-03-23T16:09:07.157Z,18.24
2023-03-23T16:11:35.087Z,18.43
2023-03-23T16:14:03.804Z,18.19
2023-03-23T16:16:44.384Z,18.11
2023-03-23T16:19:16.659Z,18.37
2023-03-23T16:21:44.049Z,18.33
2023-03-23T16:24:12.384Z,18.13
2023-03-23T16:26:41.069Z,18.38
2023-03-23T16:29:26.198Z,18.49
2023-03-23T16:32:02.026Z,18.69
2023-03-23T16:34:32.998Z,18.80
2023-03-23T16:37:00.631Z,18.97
2023-03-23T16:39:29.020Z,18.86
2023-03-23T16:41:56.575Z,18.76
2023-03-23T16:44:24.392Z,18.56
2023-03-23T16:46:51.883Z,18.67
2023-03-23T16:49:19.416Z,18.63
2023-03-23T16:51:50.492Z,18.57
2023-03-23T16:54:24.441Z,18.43
2023-03-23T16:56:52.017Z,18.15
2023-03-23T16:59:19.568Z,18.15
2023-03-23T17:01:47.250Z,18.11
2023-03-23T17:04:15.715Z,18.32
2023-03-23T17:06:44.123Z,18.07
2023-03-23T17:09:11.682Z,17.80
2023-03-23T17:11:39.250Z,17.87
2023-03-23T17:14:06.736Z,17.78
2023-03-23T17:16:34.349Z,18.05
2023-03-23T17:19:01.885Z,17.85
2023-03-23T17:21:29.497Z,17.79
2023-03-23T17:23:57.030Z,17.79
2023-03-23T17:26:24.899Z,17.84
2023-03-23T17:28:52.556Z,17.77
2023-03-23T17:31:20.253Z,17.85
2023-03-23T17:33:47.874Z,17.80
2023-03-23T17:36:15.480Z,17.76
2023-03-23T17:38:43.015Z,17.49
2023-03-23T17:41:11.454Z,17.46
2023-03-23T17:43:41.105Z,17.51
2023-03-23T17:46:10.066Z,17.71
2023-03-23T17:48:37.755Z,17.58
2023-03-23T17:51:05.838Z,17.50
2023-03-23T17:53:35.641Z,17.37
2023-03-23T17:56:04.603Z,17.70
2023-03-23T17:58:32.319Z,17.70
2023-03-23T18:01:00.079Z,17.44
2023-03-23T18:03:27.769Z,17.62
2023-03-23T18:06:03.856Z,17.55
2023-03-23T18:08:32.681Z,17.55
2023-03-23T18:11:00.404Z,17.25
2023-03-23T18:13:29.593Z,17.22
2023-03-23T18:15:58.180Z,17.25
2023-03-23T18:18:26.739Z,17.15
2023-03-23T18:20:59.522Z,17.07
2023-03-23T18:23:27.254Z,16.98
2023-03-23T18:25:55.969Z,17.13
2023-03-23T18:28:25.221Z,17.20
2023-03-23T18:30:52.756Z,17.33
2023-03-23T18:33:22.088Z,17.17
2023-03-23T18:35:49.695Z,17.09
2023-03-23T18:38:17.387Z,16.71
2023-03-23T18:40:46.302Z,16.96
2023-03-23T18:43:14.618Z,17.02
2023-03-23T18:45:42.481Z,16.75
2023-03-23T18:48:10.498Z,16.89
2023-03-23T18:50:38.150Z,16.96
2023-03-23T18:53:05.966Z,16.93
2023-03-23T18:55:33.620Z,16.33
2023-03-23T18:58:01.134Z,16.36
2023-03-23T19:00:29.629Z,16.55
2023-03-23T19:02:57.263Z,16.24
2023-03-23T19:05:24.854Z,16.39
2023-03-23T19:07:53.619Z,16.23
2023-03-23T19:10:22.175Z,16.28
2023-03-23T19:12:51.212Z,16.29
2023-03-23T19:15:18.834Z,16.10
2023-03-23T19:17:46.939Z,16.31
2023-03-23T19:20:19.710Z,16.22
2023-03-23T19:23:02.160Z,16.23
2023-03-23T19:25:29.720Z,16.13
2023-03-23T19:28:50.034Z,16.31
2023-03-23T19:30:51.028Z,16.10
2023-03-23T19:33:18.897Z,16.17
2023-03-23T19:36:06.248Z,16.19
2023-03-23T19:38:36.549Z,16.07
2023-03-23T19:41:05.855Z,16.24
2023-03-23T19:43:33.901Z,16.17
2023-03-23T19:46:01.804Z,16.08
2023-03-23T19:48:30.947Z,16.24
2023-03-23T19:50:58.617Z,16.26
2023-03-23T19:53:27.165Z,16.15
2023-03-23T19:55:54.754Z,16.19
2023-03-23T19:58:22.674Z,16.08
2023-03-23T20:00:50.694Z,15.99
2023-03-23T20:03:18.640Z,16.03
2023-03-23T20:05:48.466Z,16.03
2023-03-23T20:08:16.888Z,16.08
2023-03-23T20:10:44.703Z,15.91
2023-03-23T20:13:12.823Z,16.01
2023-03-23T20:15:40.452Z,15.82
2023-03-23T20:18:08.429Z,15.94
2023-03-23T20:20:36.750Z,15.95
2023-03-23T20:23:07.824Z,15.75
2023-03-23T20:25:35.749Z,15.80
2023-03-23T20:28:03.786Z,15.45
2023-03-23T20:30:31.805Z,15.82
2023-03-23T20:33:00.723Z,15.69
2023-03-23T20:35:29.320Z,15.96
2023-03-23T20:37:57.539Z,16.02
2023-03-23T20:40:25.174Z,15.94
2023-03-23T20:42:54.516Z,15.71
2023-03-23T20:45:22.479Z,16.03
2023-03-23T20:47:49.995Z,15.87
2023-03-23T20:50:18.612Z,15.59
2023-03-23T20:52:46.221Z,15.88
2023-03-23T20:55:15.263Z,15.70
2023-03-23T20:57:43.202Z,15.59
2023-03-23T21:00:16.235Z,15.60
2023-03-23T21:02:44.007Z,15.81
2023-03-23T21:05:12.026Z,15.79
2023-03-23T21:07:39.739Z,15.56
2023-03-23T21:10:07.443Z,15.69
2023-03-23T21:12:34.971Z,15.60
2023-03-23T21:15:02.455Z,15.36
2023-03-23T21:17:30.044Z,15.39
2023-03-23T21:19:57.888Z,15.47
2023-03-23T21:22:25.587Z,15.40
2023-03-23T21:24:53.416Z,15.45
2023-03-23T21:27:21.128Z,15.59
2023-03-23T21:29:48.962Z,15.55
2023-03-23T21:32:16.520Z,15.71
2023-03-23T21:34:46.647Z,15.47
2023-03-23T21:37:15.118Z,15.41
2023-03-23T21:39:42.667Z,15.23
2023-03-23T21:42:13.581Z,15.57
2023-03-23T21:44:43.415Z,15.34
2023-03-23T21:47:12.818Z,15.39
2023-03-23T21:49:40.888Z,15.45
2023-03-23T21:52:09.009Z,15.48
2023-03-23T21:54:36.571Z,15.62
2023-03-23T21:57:04.161Z,15.43
2023-03-23T21:59:31.723Z,15.53
2023-03-23T22:02:01.864Z,15.44
2023-03-23T22:04:29.541Z,15.43
2023-03-23T22:06:57.306Z,15.25
2023-03-23T22:09:24.847Z,15.43
2023-03-23T22:11:52.420Z,15.40
2023-03-23T22:14:19.954Z,15.48
2023-03-23T22:16:47.490Z,15.30
2023-03-23T22:19:15.045Z,15.32
2023-03-23T22:21:42.635Z,15.06
2023-03-23T22:24:10.362Z,15.20
2023-03-23T22:26:37.950Z,15.04
2023-03-23T22:29:06.951Z,15.38
2023-03-23T22:31:36.381Z,15.26
2023-03-23T22:34:04.139Z,15.11
2023-03-23T22:36:33.424Z,15.35
2023-03-23T22:39:02.023Z,15.53
2023-03-23T22:41:33.821Z,15.26
2023-03-23T22:44:02.013Z,15.43
2023-03-23T22:46:29.616Z,15.25
2023-03-23T22:48:57.113Z,15.34
2023-03-23T22:51:25.517Z,15.57
2023-03-23T22:53:53.086Z,15.48
2023-03-23T22:56:21.427Z,15.38
2023-03-23T22:58:48.969Z,15.00
2023-03-23T23:01:19.468Z,15.16
2023-03-23T23:03:47.329Z,15.28
2023-03-23T23:06:17.200Z,15.25
2023-03-23T23:08:45.992Z,15.14
2023-03-23T23:11:16.199Z,14.71
2023-03-23T23:13:44.365Z,15.13
2023-03-23T23:16:14.022Z,14.87
2023-03-23T23:18:41.842Z,15.06
2023-03-23T23:21:13.974Z,15.01
2023-03-23T23:23:41.575Z,14.77
2023-03-23T23:26:09.969Z,15.08
2023-03-23T23:28:37.532Z,15.23
2023-03-23T23:31:06.200Z,15.00
2023-03-23T23:33:33.931Z,14.93
2023-03-23T23:36:02.336Z,15.11
2023-03-23T23:38:29.905Z,15.05
2023-03-23T23:40:57.579Z,15.01
2023-03-23T23:43:25.124Z,15.11
2023-03-23T23:45:52.860Z,15.02
2023-03-23T23:48:20.766Z,15.41
2023-03-23T23:50:51.987Z,15.04
2023-03-23T23:53:23.047Z,15.17
2023-03-23T23:55:50.992Z,15.22
2023-03-23T23:58:19.255Z,15.35
